createdAt,value
2022-11-17T10:50:53.954Z,60.02
2022-11-17T10:56:16.683Z,59.99
2022-11-17T11:01:30.568Z,60.17
2022-11-17T11:06:36.017Z,60.20
2022-11-17T11:11:58.151Z,60.65
2022-11-17T11:17:11.075Z,60.40
2022-11-17T11:22:40.948Z,60.54
2022-11-17T11:27:59.589Z,59.37
2022-11-17T11:33:26.038Z,59.41
2022-11-17T11:39:01.136Z,59.80
2022-11-17T11:44:26.941Z,59.18
2022-11-17T11:49:49.498Z,58.62
2022-11-17T11:55:05.508Z,58.31
2022-11-17T12:00:19.187Z,58.08
2022-11-17T12:05:41.222Z,58.35
2022-11-17T12:11:32.854Z,57.69
2022-11-17T12:16:37.432Z,57.67
2022-11-17T12:21:41.728Z,57.22
2022-11-17T12:26:45.550Z,57.07
2022-11-17T12:32:01.791Z,57.60
2022-11-17T12:37:26.676Z,58.38
2022-11-17T12:42:33.579Z,58.18
2022-11-17T12:48:04.810Z,58.93
2022-11-17T12:53:21.569Z,59.10
2022-11-17T12:58:51.701Z,59.22
2022-11-17T13:04:01.678Z,59.77
2022-11-17T13:09:11.887Z,60.23
2022-11-17T13:14:17.676Z,60.42
2022-11-17T13:19:37.933Z,60.38
2022-11-17T13:24:48.306Z,60.41
2022-11-17T13:30:16.606Z,60.49
2022-11-17T13:35:29.950Z,60.59
2022-11-17T13:40:36.129Z,60.95
2022-11-17T13:45:40.799Z,61.25
2022-11-17T13:50:44.596Z,61.40
2022-11-17T13:55:48.216Z,61.50
2022-11-17T14:00:57.957Z,61.72
2022-11-17T14:06:03.754Z,61.87
2022-11-17T14:11:10.538Z,62.19
2022-11-17T14:16:35.212Z,62.44
2022-11-17T14:22:14.311Z,62.92
2022-11-17T14:27:30.681Z,63.13
2022-11-17T14:32:35.162Z,63.31
2022-11-17T14:37:38.677Z,63.51
2022-11-17T14:42:42.751Z,63.95
2022-11-17T14:47:46.422Z,64.10
2022-11-17T14:52:49.844Z,64.43
2022-11-17T14:57:53.765Z,64.99
2022-11-17T15:02:57.309Z,65.00
2022-11-17T15:08:00.896Z,65.17
2022-11-17T15:13:04.416Z,65.25
2022-11-17T15:18:12.340Z,65.43
2022-11-17T15:23:16.157Z,65.71
2022-11-17T15:28:23.071Z,65.93
2022-11-17T15:33:26.686Z,66.07
2022-11-17T15:38:31.669Z,66.08
2022-11-17T15:43:37.915Z,66.44
2022-11-17T15:48:45.772Z,67.16
2022-11-17T15:53:51.698Z,67.10
2022-11-17T15:59:05.453Z,67.30
2022-11-17T16:04:12.348Z,67.53
2022-11-17T16:09:16.815Z,68.08
2022-11-17T16:14:20.524Z,68.59
2022-11-17T16:19:23.916Z,69.08
2022-11-17T16:24:27.355Z,69.02
2022-11-17T16:29:31.321Z,69.03
2022-11-17T16:34:34.674Z,69.39
2022-11-17T16:39:38.125Z,69.42
2022-11-17T16:44:41.560Z,69.57
2022-11-17T16:49:50.512Z,69.74
2022-11-17T16:54:57.237Z,69.75
2022-11-17T17:00:04.317Z,70.35
2022-11-17T17:05:08.142Z,70.45
2022-11-17T17:10:11.989Z,70.65
2022-11-17T17:15:15.730Z,71.46
2022-11-17T17:20:19.125Z,70.68
2022-11-17T17:25:22.536Z,71.07
2022-11-17T17:30:25.985Z,71.14
2022-11-17T17:35:29.359Z,70.94
2022-11-17T17:40:34.310Z,71.10
2022-11-17T17:45:38.128Z,71.43
2022-11-17T17:50:41.679Z,71.88
2022-11-17T17:55:45.064Z,71.85
2022-11-17T18:00:50.114Z,71.96
2022-11-17T18:05:53.547Z,72.56
2022-11-17T18:11:01.863Z,72.61
2022-11-17T18:16:10.493Z,72.82
2022-11-17T18:21:18.926Z,72.46
2022-11-17T18:26:34.114Z,72.57
2022-11-17T18:31:38.414Z,72.59
2022-11-17T18:36:42.155Z,72.57
2022-11-17T18:41:45.759Z,73.52
2022-11-17T18:46:49.213Z,73.22
2022-11-17T18:51:52.619Z,73.25
2022-11-17T18:56:56.497Z,73.56
2022-11-17T19:02:00.294Z,73.50
2022-11-17T19:07:04.274Z,73.53
2022-11-17T19:12:10.024Z,73.62
2022-11-17T19:17:13.579Z,73.67
2022-11-17T19:22:17.167Z,73.63
2022-11-17T19:27:20.611Z,73.64
2022-11-17T19:32:24.126Z,74.20
2022-11-17T19:37:27.545Z,74.26
2022-11-17T19:42:30.979Z,74.77
2022-11-17T19:47:36.014Z,74.64
2022-11-17T19:52:39.527Z,74.60
2022-11-17T19:57:43.044Z,74.47
2022-11-17T20:02:46.447Z,74.75
2022-11-17T20:07:49.969Z,74.82
2022-11-17T20:12:53.486Z,75.04
2022-11-17T20:17:57.216Z,75.05
2022-11-17T20:23:00.625Z,75.22
2022-11-17T20:28:04.244Z,75.15
2022-11-17T20:33:08.069Z,75.21
2022-11-17T20:38:14.662Z,75.11
2022-11-17T20:43:19.174Z,74.93
2022-11-17T20:48:24.758Z,75.18
2022-11-17T20:53:29.468Z,75.19
2022-11-17T20:58:34.047Z,75.29
2022-11-17T21:03:37.531Z,75.29
2022-11-17T21:08:42.803Z,75.44
2022-11-17T21:13:46.329Z,75.18
2022-11-17T21:18:50.049Z,74.92
2022-11-17T21:23:55.108Z,74.75
2022-11-17T21:29:04.850Z,74.70
2022-11-17T21:34:16.917Z,74.67
2022-11-17T21:39:20.400Z,74.58
2022-11-17T21:44:23.913Z,74.42
2022-11-17T21:49:27.633Z,74.29
2022-11-17T21:54:31.149Z,74.29
2022-11-17T21:59:34.665Z,74.36
2022-11-17T22:04:38.490Z,74.43
2022-11-17T22:09:41.904Z,74.15
2022-11-17T22:14:45.315Z,74.00
2022-11-17T22:19:48.762Z,73.82
2022-11-17T22:24:52.249Z,73.96
2022-11-17T22:29:55.766Z,73.92
2022-11-17T22:35:02.047Z,73.89
2022-11-17T22:40:07.029Z,73.60
2022-11-17T22:45:11.134Z,73.54
2022-11-17T22:50:14.550Z,73.76
2022-11-17T22:55:18.260Z,73.90
2022-11-17T23:00:21.780Z,74.00
2022-11-17T23:05:25.235Z,73.86
2022-11-17T23:10:29.357Z,73.54
2022-11-17T23:15:32.782Z,73.25
2022-11-17T23:20:36.811Z,73.05
2022-11-17T23:25:40.165Z,72.95
2022-11-17T23:30:43.797Z,73.05
2022-11-17T23:35:47.422Z,73.18
2022-11-17T23:40:52.061Z,73.21
2022-11-17T23:45:56.632Z,73.21
2022-11-17T23:51:09.331Z,73.21
2022-11-17T23:56:13.977Z,73.10
